createdAt,value
2023-03-08T00:01:51.678Z,98743.31
2023-03-08T00:04:18.388Z,98742.22
2023-03-08T00:06:45.076Z,98741.56
2023-03-08T00:09:11.747Z,98735.63
2023-03-08T00:11:38.687Z,98743.72
2023-03-08T00:14:05.333Z,98744.47
2023-03-08T00:16:31.973Z,98743.69
2023-03-08T00:18:58.788Z,98750.69
2023-03-08T00:21:25.465Z,98741.28
2023-03-08T00:23:53.160Z,98745.63
2023-03-08T00:26:19.936Z,98739.03
2023-03-08T00:28:46.946Z,98745.69
2023-03-08T00:31:14.423Z,98747.00
2023-03-08T00:33:41.446Z,98739.50
2023-03-08T00:36:14.457Z,98730.63
2023-03-08T00:38:41.170Z,98730.84
2023-03-08T00:41:07.906Z,98729.06
2023-03-08T00:43:34.535Z,98728.50
2023-03-08T00:46:01.738Z,98732.88
2023-03-08T00:48:28.483Z,98726.84
2023-03-08T00:50:55.096Z,98732.34
2023-03-08T00:53:24.410Z,98726.81
2023-03-08T00:55:57.893Z,98734.81
2023-03-08T00:58:26.326Z,98733.44
2023-03-08T01:00:53.134Z,98723.47
2023-03-08T01:03:21.340Z,98715.66
2023-03-08T01:05:51.332Z,98720.22
2023-03-08T01:08:18.879Z,98725.06
2023-03-08T01:10:50.168Z,98731.44
2023-03-08T01:13:18.215Z,98732.69
2023-03-08T01:15:44.904Z,98733.91
2023-03-08T01:18:11.910Z,98735.16
2023-03-08T01:20:38.567Z,98731.97
2023-03-08T01:23:05.464Z,98739.09
2023-03-08T01:25:32.239Z,98746.69
2023-03-08T01:27:58.959Z,98740.81
2023-03-08T01:30:25.761Z,98752.00
2023-03-08T01:32:53.184Z,98756.34
2023-03-08T01:35:19.970Z,98759.91
2023-03-08T01:37:46.707Z,98761.03
2023-03-08T01:40:16.354Z,98763.41
2023-03-08T01:42:42.957Z,98758.38
2023-03-08T01:45:47.063Z,98758.00
2023-03-08T01:48:16.086Z,98760.13
2023-03-08T01:50:45.777Z,98766.78
2023-03-08T01:53:13.411Z,98761.56
2023-03-08T01:55:43.602Z,98771.78
2023-03-08T01:58:10.653Z,98775.72
2023-03-08T02:00:39.075Z,98782.47
2023-03-08T02:03:11.650Z,98795.78
2023-03-08T02:05:42.188Z,98789.19
2023-03-08T02:08:09.641Z,98791.13
2023-03-08T02:10:37.619Z,98794.22
2023-03-08T02:13:07.745Z,98792.28
2023-03-08T02:15:34.523Z,98788.47
2023-03-08T02:18:01.256Z,98787.38
2023-03-08T02:20:38.171Z,98790.16
2023-03-08T02:23:16.251Z,98793.13
2023-03-08T02:25:52.063Z,98791.69
2023-03-08T02:28:20.642Z,98789.88
2023-03-08T02:30:48.009Z,98789.09
2023-03-08T02:33:14.637Z,98793.25
2023-03-08T02:35:41.361Z,98795.81
2023-03-08T02:38:09.119Z,98801.97
2023-03-08T02:40:37.266Z,98797.81
2023-03-08T02:43:05.751Z,98804.13
2023-03-08T02:45:33.282Z,98805.44
2023-03-08T02:48:01.204Z,98808.03
2023-03-08T02:50:28.036Z,98814.44
2023-03-08T02:52:54.810Z,98818.56
2023-03-08T02:55:21.456Z,98822.56
2023-03-08T02:57:48.099Z,98830.41
2023-03-08T03:00:15.363Z,98828.78
2023-03-08T03:02:42.208Z,98834.75
2023-03-08T03:05:10.124Z,98833.78
2023-03-08T03:07:39.111Z,98835.97
2023-03-08T03:10:06.903Z,98844.88
2023-03-08T03:12:33.974Z,98844.16
2023-03-08T03:15:08.447Z,98850.84
2023-03-08T03:17:35.988Z,98851.16
2023-03-08T03:20:06.863Z,98856.00
2023-03-08T03:22:33.511Z,98863.34
2023-03-08T03:25:03.220Z,98865.25
2023-03-08T03:27:29.870Z,98866.34
2023-03-08T03:29:56.609Z,98871.16
2023-03-08T03:32:23.262Z,98872.13
2023-03-08T03:34:50.015Z,98873.69
2023-03-08T03:37:16.735Z,98876.47
2023-03-08T03:39:43.468Z,98879.91
2023-03-08T03:42:10.343Z,98888.72
2023-03-08T03:44:37.272Z,98881.56
2023-03-08T03:47:04.176Z,98880.59
2023-03-08T03:49:31.060Z,98878.81
2023-03-08T03:51:57.668Z,98872.09
2023-03-08T03:54:24.627Z,98856.38
2023-03-08T03:56:51.730Z,98846.19
2023-03-08T03:59:18.446Z,98837.00
2023-03-08T04:01:45.082Z,98841.44
2023-03-08T04:04:13.104Z,98841.28
2023-03-08T04:06:39.864Z,98845.09
2023-03-08T04:09:10.429Z,98848.19
2023-03-08T04:11:40.294Z,98852.06
2023-03-08T04:14:07.604Z,98852.47
2023-03-08T04:16:36.500Z,98866.22
2023-03-08T04:19:12.178Z,98878.28
2023-03-08T04:21:39.517Z,98881.41
2023-03-08T04:24:06.666Z,98886.78
2023-03-08T04:26:33.565Z,98889.31
2023-03-08T04:29:00.382Z,98887.41
2023-03-08T04:31:29.477Z,98896.34
2023-03-08T04:33:56.538Z,98893.56
2023-03-08T04:36:23.347Z,98899.81
2023-03-08T04:38:51.275Z,98904.69
2023-03-08T04:41:18.609Z,98907.47
2023-03-08T04:43:54.441Z,98913.88
2023-03-08T04:46:24.053Z,98913.13
2023-03-08T04:48:51.484Z,98914.84
2023-03-08T04:51:18.119Z,98910.59
2023-03-08T04:53:45.013Z,98901.88
2023-03-08T04:56:13.784Z,98909.84
2023-03-08T04:58:41.937Z,98909.91
2023-03-08T05:01:20.112Z,98908.09
2023-03-08T05:03:46.996Z,98911.28
2023-03-08T05:06:14.263Z,98913.94
2023-03-08T05:08:41.501Z,98916.25
2023-03-08T05:11:08.601Z,98910.69
2023-03-08T05:13:37.391Z,98916.25
2023-03-08T05:16:06.003Z,98921.16
2023-03-08T05:18:33.146Z,98919.09
2023-03-08T05:21:03.377Z,98926.19
2023-03-08T05:23:30.413Z,98928.84
2023-03-08T05:25:59.341Z,98917.41
2023-03-08T05:28:28.538Z,98922.72
2023-03-08T05:31:24.797Z,98927.78
2023-03-08T05:33:52.412Z,98930.59
2023-03-08T05:36:19.673Z,98925.34
2023-03-08T05:38:46.359Z,98944.25
2023-03-08T05:41:15.094Z,98941.56
2023-03-08T05:43:42.164Z,98943.53
2023-03-08T05:46:12.913Z,98952.91
2023-03-08T05:48:40.341Z,98951.81
2023-03-08T05:51:15.108Z,98954.63
2023-03-08T05:53:42.437Z,98956.94
2023-03-08T05:56:09.022Z,98965.88
2023-03-08T05:58:36.324Z,98964.97
2023-03-08T06:01:32.243Z,98975.13
2023-03-08T06:03:58.897Z,98977.06
2023-03-08T06:06:27.525Z,98989.09
2023-03-08T06:08:54.220Z,98986.53
2023-03-08T06:11:20.866Z,98991.53
2023-03-08T06:13:47.532Z,99004.00
2023-03-08T06:16:14.810Z,99000.72
2023-03-08T06:18:43.072Z,99007.91
2023-03-08T06:21:18.098Z,99007.22
2023-03-08T06:23:45.943Z,99012.44
2023-03-08T06:26:13.518Z,99016.47
2023-03-08T06:28:40.353Z,99022.94
2023-03-08T06:31:09.363Z,99020.56
2023-03-08T06:33:36.011Z,99019.28
2023-03-08T06:36:21.768Z,99018.81
2023-03-08T06:38:49.219Z,99021.66
2023-03-08T06:41:17.562Z,99024.31
2023-03-08T06:43:44.327Z,99022.09
2023-03-08T06:46:13.753Z,99033.53
2023-03-08T06:48:40.879Z,99039.59
2023-03-08T06:51:07.509Z,99040.88
2023-03-08T06:53:35.366Z,99045.31
2023-03-08T06:56:02.618Z,99062.72
2023-03-08T06:58:29.343Z,99053.28
2023-03-08T07:00:56.090Z,99049.41
2023-03-08T07:03:22.845Z,99055.28
2023-03-08T07:05:49.511Z,99062.13
2023-03-08T07:08:16.238Z,99063.06
2023-03-08T07:10:42.910Z,99066.44
2023-03-08T07:13:09.658Z,99072.44
2023-03-08T07:15:40.002Z,99060.44
2023-03-08T07:18:06.613Z,99066.63
2023-03-08T07:20:33.336Z,99088.72
2023-03-08T07:23:00.140Z,99083.13
2023-03-08T07:25:26.846Z,99086.59
2023-03-08T07:27:53.877Z,99091.34
2023-03-08T07:30:20.764Z,99091.41
2023-03-08T07:32:47.653Z,99087.78
2023-03-08T07:35:16.083Z,99107.38
2023-03-08T07:37:47.019Z,99100.88
2023-03-08T07:40:17.477Z,99096.38
2023-03-08T07:42:45.159Z,99087.59
2023-03-08T07:45:12.978Z,99091.84
2023-03-08T07:47:40.065Z,99099.00
2023-03-08T07:50:08.353Z,99108.59
2023-03-08T07:52:35.179Z,99108.41
2023-03-08T07:55:01.990Z,99110.66
2023-03-08T07:57:28.671Z,99121.34
2023-03-08T07:59:55.408Z,99122.22
2023-03-08T08:02:22.088Z,99123.47
2023-03-08T08:05:01.447Z,99128.38
2023-03-08T08:07:28.138Z,99132.81
2023-03-08T08:09:54.877Z,99138.22
2023-03-08T08:12:21.637Z,99135.81
2023-03-08T08:14:48.373Z,99135.72
2023-03-08T08:17:15.229Z,99140.09
2023-03-08T08:19:41.953Z,99137.81
2023-03-08T08:22:08.619Z,99143.72
2023-03-08T08:24:36.910Z,99137.66
2023-03-08T08:27:03.975Z,99133.53
2023-03-08T08:29:30.713Z,99141.91
2023-03-08T08:31:57.424Z,99148.28
2023-03-08T08:34:24.833Z,99142.94
2023-03-08T08:36:51.489Z,99144.63
2023-03-08T08:39:18.424Z,99148.81
2023-03-08T08:41:45.094Z,99132.03
2023-03-08T08:44:11.924Z,99137.69
2023-03-08T08:46:41.932Z,99133.44
2023-03-08T08:49:08.572Z,99127.53
2023-03-08T08:51:35.487Z,99136.63
2023-03-08T08:54:02.599Z,99132.53
2023-03-08T08:56:29.445Z,99129.88
2023-03-08T08:59:03.114Z,99129.09
2023-03-08T09:01:32.473Z,99125.19
2023-03-08T09:03:59.969Z,99121.00
2023-03-08T09:06:28.605Z,99112.38
2023-03-08T09:08:58.166Z,99115.75
2023-03-08T09:11:26.757Z,99114.56
2023-03-08T09:13:53.920Z,99114.66
2023-03-08T09:16:32.568Z,99121.34
2023-03-08T09:19:04.014Z,99109.16
2023-03-08T09:21:31.618Z,99111.09
2023-03-08T09:24:04.889Z,99123.84
2023-03-08T09:26:33.034Z,99114.56
2023-03-08T09:29:01.401Z,99116.91
2023-03-08T09:31:28.080Z,99123.50
2023-03-08T09:33:54.733Z,99109.31
2023-03-08T09:36:21.678Z,99101.59
2023-03-08T09:38:49.679Z,99091.56
2023-03-08T09:41:19.008Z,99095.50
2023-03-08T09:44:09.443Z,99098.75
2023-03-08T09:46:40.434Z,99097.56
2023-03-08T09:49:15.433Z,99103.91
2023-03-08T09:51:47.790Z,99097.06
2023-03-08T09:54:20.701Z,99097.63
2023-03-08T09:56:51.203Z,99108.38
2023-03-08T09:59:27.045Z,99093.56
2023-03-08T10:01:56.706Z,99096.94
2023-03-08T10:04:34.126Z,99101.38
2023-03-08T10:07:06.736Z,99092.56
2023-03-08T10:09:38.698Z,99093.84
2023-03-08T10:12:17.362Z,99091.44
2023-03-08T10:14:52.754Z,99078.03
2023-03-08T10:17:28.248Z,99087.19
2023-03-08T10:20:24.796Z,99091.19
2023-03-08T10:23:15.755Z,99096.56
2023-03-08T10:25:42.671Z,99094.06
2023-03-08T10:28:20.877Z,99089.09
2023-03-08T10:30:51.040Z,99089.81
2023-03-08T10:33:19.804Z,99091.50
2023-03-08T10:35:52.715Z,99089.75
2023-03-08T10:38:19.497Z,99086.53
2023-03-08T10:40:47.001Z,99081.09
2023-03-08T10:43:39.190Z,99087.41
2023-03-08T10:46:12.364Z,99098.09
2023-03-08T10:48:39.281Z,99090.97
2023-03-08T10:51:16.687Z,99086.59
2023-03-08T10:53:56.523Z,99092.69
2023-03-08T10:56:37.858Z,99089.13
2023-03-08T10:59:13.965Z,99072.13
2023-03-08T11:01:52.910Z,99070.50
2023-03-08T11:04:24.711Z,99058.78
2023-03-08T11:06:51.622Z,99050.97
2023-03-08T11:09:30.919Z,99049.09
2023-03-08T11:11:59.491Z,99052.16
2023-03-08T11:14:28.160Z,99052.97
2023-03-08T11:17:06.496Z,99051.22
2023-03-08T11:19:54.645Z,99044.88
2023-03-08T11:22:33.247Z,99040.34
2023-03-08T11:25:09.247Z,99036.06
2023-03-08T11:27:42.064Z,99033.16
2023-03-08T11:30:30.439Z,99029.13
2023-03-08T11:33:22.878Z,99026.59
2023-03-08T11:36:11.523Z,99018.28
2023-03-08T11:38:39.735Z,99022.22
2023-03-08T11:41:27.735Z,99032.91
2023-03-08T11:44:06.426Z,99038.09
2023-03-08T11:46:51.406Z,99028.78
2023-03-08T11:49:18.004Z,99025.56
2023-03-08T11:51:53.201Z,99018.19
2023-03-08T11:54:58.247Z,99014.81
2023-03-08T11:57:27.505Z,99009.38
2023-03-08T12:00:02.547Z,99004.22
2023-03-08T12:02:37.560Z,98998.59
2023-03-08T12:05:29.394Z,98998.38
2023-03-08T12:08:15.868Z,98997.06
2023-03-08T12:10:48.612Z,98991.56
2023-03-08T12:13:25.303Z,98996.16
2023-03-08T12:16:08.466Z,98994.81
2023-03-08T12:19:01.374Z,98988.28
2023-03-08T12:21:34.399Z,98990.97
2023-03-08T12:24:42.474Z,98983.44
2023-03-08T12:27:20.443Z,98981.81
2023-03-08T12:29:57.566Z,98998.34
2023-03-08T12:32:26.202Z,98993.47
2023-03-08T12:35:20.544Z,98995.78
2023-03-08T12:37:59.624Z,98991.16
2023-03-08T12:40:37.014Z,98982.00
2023-03-08T12:43:13.026Z,98967.91
2023-03-08T12:45:42.332Z,98957.19
2023-03-08T12:48:21.955Z,98956.78
2023-03-08T12:50:54.506Z,98950.50
2023-03-08T12:53:47.073Z,98952.94
2023-03-08T12:56:19.305Z,98947.63
2023-03-08T12:59:14.503Z,98937.06
2023-03-08T13:01:46.206Z,98925.91
2023-03-08T13:04:40.804Z,98926.44
2023-03-08T13:07:39.936Z,98914.53
2023-03-08T13:10:23.145Z,98897.59
2023-03-08T13:13:39.165Z,98880.56
2023-03-08T13:16:15.097Z,98879.97
2023-03-08T13:18:47.413Z,98870.09
2023-03-08T13:21:27.146Z,98864.34
2023-03-08T13:24:13.654Z,98856.53
2023-03-08T13:27:01.210Z,98851.81
2023-03-08T13:29:31.019Z,98845.63
2023-03-08T13:31:58.786Z,98852.81
2023-03-08T13:34:31.087Z,98853.28
2023-03-08T13:36:58.213Z,98836.50
2023-03-08T13:39:32.425Z,98832.53
2023-03-08T13:42:25.853Z,98820.91
2023-03-08T13:45:09.878Z,98818.00
2023-03-08T13:47:38.722Z,98808.47
2023-03-08T13:50:06.678Z,98801.28
2023-03-08T13:52:36.747Z,98794.56
2023-03-08T13:55:07.076Z,98795.47
2023-03-08T13:57:37.111Z,98787.47
2023-03-08T14:00:36.405Z,98792.69
2023-03-08T14:03:05.254Z,98791.59
2023-03-08T14:05:39.868Z,98798.94
2023-03-08T14:08:16.811Z,98788.16
2023-03-08T14:11:00.213Z,98776.41
2023-03-08T14:13:33.883Z,98784.44
2023-03-08T14:16:05.157Z,98790.94
2023-03-08T14:18:38.104Z,98792.66
2023-03-08T14:21:13.987Z,98803.50
2023-03-08T14:23:43.351Z,98798.25
2023-03-08T14:26:36.231Z,98793.91
2023-03-08T14:29:12.397Z,98789.88
2023-03-08T14:31:40.385Z,98787.41
2023-03-08T14:34:24.838Z,98783.09
2023-03-08T14:37:04.997Z,98784.94
2023-03-08T14:39:33.618Z,98786.97
2023-03-08T14:42:29.544Z,98796.09
2023-03-08T14:45:05.627Z,98792.69
2023-03-08T14:47:34.719Z,98790.22
2023-03-08T14:50:06.996Z,98796.34
2023-03-08T14:52:36.673Z,98795.16
2023-03-08T14:55:16.405Z,98788.28
2023-03-08T14:57:43.160Z,98790.97
2023-03-08T15:00:14.241Z,98789.13
2023-03-08T15:02:41.528Z,98781.44
2023-03-08T15:05:22.516Z,98772.88
2023-03-08T15:07:55.209Z,98777.09
2023-03-08T15:10:34.058Z,98770.97
2023-03-08T15:13:01.033Z,98764.81
2023-03-08T15:15:27.656Z,98760.94
2023-03-08T15:17:54.323Z,98753.00
2023-03-08T15:20:21.027Z,98749.28
2023-03-08T15:23:00.196Z,98749.81
2023-03-08T15:25:29.238Z,98748.78
2023-03-08T15:27:56.094Z,98737.72
2023-03-08T15:30:26.417Z,98739.59
2023-03-08T15:32:53.268Z,98733.72
2023-03-08T15:35:19.854Z,98727.28
2023-03-08T15:37:47.019Z,98735.84
2023-03-08T15:40:15.453Z,98724.56
2023-03-08T15:42:42.450Z,98721.94
2023-03-08T15:45:10.805Z,98731.78
2023-03-08T15:47:41.652Z,98729.69
2023-03-08T15:50:17.509Z,98716.22
2023-03-08T15:52:44.676Z,98712.59
2023-03-08T15:55:13.323Z,98706.00
2023-03-08T15:57:41.035Z,98701.69
2023-03-08T16:00:09.815Z,98693.53
2023-03-08T16:02:36.420Z,98683.09
2023-03-08T16:05:04.387Z,98687.81
2023-03-08T16:07:31.890Z,98679.31
2023-03-08T16:09:58.813Z,98681.56
2023-03-08T16:12:25.816Z,98676.84
2023-03-08T16:14:52.493Z,98676.28
2023-03-08T16:17:19.173Z,98679.44
2023-03-08T16:19:45.850Z,98683.69
2023-03-08T16:22:12.597Z,98674.94
2023-03-08T16:24:39.246Z,98678.75
2023-03-08T16:27:06.077Z,98682.25
2023-03-08T16:29:33.782Z,98680.03
2023-03-08T16:32:00.660Z,98676.28
2023-03-08T16:34:29.363Z,98670.06
2023-03-08T16:36:56.967Z,98674.47
2023-03-08T16:39:25.127Z,98673.66
2023-03-08T16:41:52.080Z,98669.09
2023-03-08T16:44:23.040Z,98662.84
2023-03-08T16:46:50.240Z,98668.16
2023-03-08T16:49:18.847Z,98661.84
2023-03-08T16:51:45.614Z,98663.69
2023-03-08T16:54:13.524Z,98672.28
2023-03-08T16:56:41.957Z,98658.81
2023-03-08T16:59:13.422Z,98664.25
2023-03-08T17:01:40.724Z,98657.25
2023-03-08T17:04:07.361Z,98655.63
2023-03-08T17:06:34.316Z,98655.31
2023-03-08T17:09:01.639Z,98661.69
2023-03-08T17:11:31.455Z,98651.00
2023-03-08T17:14:03.114Z,98652.94
2023-03-08T17:16:31.586Z,98650.84
2023-03-08T17:19:00.377Z,98657.66
2023-03-08T17:21:28.734Z,98662.69
2023-03-08T17:23:55.639Z,98657.03
2023-03-08T17:26:23.444Z,98653.84
2023-03-08T17:28:54.330Z,98644.22
2023-03-08T17:31:22.792Z,98649.81
2023-03-08T17:33:50.352Z,98647.94
2023-03-08T17:36:17.211Z,98645.78
2023-03-08T17:38:44.206Z,98653.47
2023-03-08T17:41:13.490Z,98655.03
2023-03-08T17:43:41.448Z,98653.84
2023-03-08T17:46:12.631Z,98646.91
2023-03-08T17:48:39.460Z,98654.56
2023-03-08T17:51:15.281Z,98642.13
2023-03-08T17:53:43.387Z,98643.97
2023-03-08T17:56:13.232Z,98650.50
2023-03-08T17:58:40.555Z,98654.22
2023-03-08T18:01:16.217Z,98653.31
2023-03-08T18:03:43.584Z,98645.66
2023-03-08T18:06:19.217Z,98652.63
2023-03-08T18:08:46.164Z,98654.16
2023-03-08T18:11:12.914Z,98639.38
2023-03-08T18:13:40.824Z,98647.34
2023-03-08T18:16:08.291Z,98634.66
2023-03-08T18:18:34.972Z,98638.06
2023-03-08T18:21:12.638Z,98635.09
2023-03-08T18:23:40.362Z,98645.94
2023-03-08T18:26:06.993Z,98644.13
2023-03-08T18:28:33.582Z,98632.09
2023-03-08T18:31:00.238Z,98640.69
2023-03-08T18:33:26.943Z,98631.06
2023-03-08T18:35:58.924Z,98624.78
2023-03-08T18:38:25.695Z,98622.03
2023-03-08T18:40:52.309Z,98633.78
2023-03-08T18:43:19.075Z,98625.97
2023-03-08T18:45:56.440Z,98616.81
2023-03-08T18:48:24.295Z,98618.41
2023-03-08T18:50:51.064Z,98610.84
2023-03-08T18:53:17.894Z,98615.38
2023-03-08T18:55:55.520Z,98610.69
2023-03-08T18:58:22.330Z,98614.63
2023-03-08T19:00:49.039Z,98611.63
2023-03-08T19:03:15.814Z,98599.94
2023-03-08T19:05:42.990Z,98608.06
2023-03-08T19:08:09.722Z,98598.72
2023-03-08T19:10:36.665Z,98601.59
2023-03-08T19:13:05.968Z,98598.44
2023-03-08T19:15:36.195Z,98593.00
2023-03-08T19:18:03.049Z,98602.59
2023-03-08T19:20:29.803Z,98600.78
2023-03-08T19:22:56.750Z,98596.50
2023-03-08T19:25:23.595Z,98591.66
2023-03-08T19:27:50.257Z,98595.16
2023-03-08T19:30:17.400Z,98604.91
2023-03-08T19:32:44.429Z,98597.50
2023-03-08T19:35:11.298Z,98591.75
2023-03-08T19:37:38.072Z,98598.56
2023-03-08T19:40:05.380Z,98602.41
2023-03-08T19:42:32.019Z,98605.88
2023-03-08T19:45:00.950Z,98621.06
2023-03-08T19:47:27.746Z,98611.84
2023-03-08T19:49:54.370Z,98605.16
2023-03-08T19:52:21.085Z,98594.78
2023-03-08T19:54:47.731Z,98598.03
2023-03-08T19:57:14.430Z,98590.72
2023-03-08T19:59:41.037Z,98583.03
2023-03-08T20:02:08.878Z,98583.09
2023-03-08T20:04:35.674Z,98581.41
2023-03-08T20:07:02.715Z,98581.34
2023-03-08T20:09:29.470Z,98578.81
2023-03-08T20:11:58.840Z,98587.56
2023-03-08T20:14:27.490Z,98578.16
2023-03-08T20:16:55.091Z,98578.19
2023-03-08T20:19:22.047Z,98571.53
2023-03-08T20:21:49.098Z,98572.94
2023-03-08T20:24:15.754Z,98582.16
2023-03-08T20:26:42.433Z,98580.03
2023-03-08T20:29:12.182Z,98579.34
2023-03-08T20:31:38.847Z,98587.47
2023-03-08T20:34:05.517Z,98583.84
2023-03-08T20:36:33.503Z,98575.47
2023-03-08T20:39:00.714Z,98575.38
2023-03-08T20:41:28.512Z,98568.69
2023-03-08T20:43:55.220Z,98566.78
2023-03-08T20:46:25.547Z,98564.94
2023-03-08T20:48:52.266Z,98565.44
2023-03-08T20:51:20.654Z,98562.09
2023-03-08T20:53:51.878Z,98559.66
2023-03-08T20:56:21.176Z,98558.97
2023-03-08T20:58:48.146Z,98569.97
2023-03-08T21:01:17.791Z,98560.03
2023-03-08T21:03:45.869Z,98560.06
2023-03-08T21:06:25.305Z,98561.03
2023-03-08T21:08:52.363Z,98564.31
2023-03-08T21:11:20.084Z,98569.41
2023-03-08T21:13:51.618Z,98565.03
2023-03-08T21:16:20.266Z,98567.13
2023-03-08T21:18:51.896Z,98567.13
2023-03-08T21:21:25.774Z,98570.97
2023-03-08T21:23:52.823Z,98571.75
2023-03-08T21:26:19.526Z,98567.16
2023-03-08T21:28:46.632Z,98560.91
2023-03-08T21:31:13.384Z,98566.84
2023-03-08T21:33:40.022Z,98565.59
2023-03-08T21:36:07.169Z,98552.53
2023-03-08T21:38:33.912Z,98550.75
2023-03-08T21:41:00.544Z,98557.78
2023-03-08T21:43:27.175Z,98555.69
2023-03-08T21:45:53.947Z,98547.41
2023-03-08T21:48:20.789Z,98547.41
2023-03-08T21:50:47.626Z,98542.66
2023-03-08T21:53:14.255Z,98540.75
2023-03-08T21:55:41.855Z,98536.78
2023-03-08T21:58:09.425Z,98532.81
2023-03-08T22:00:36.235Z,98525.16
2023-03-08T22:03:04.711Z,98530.41
2023-03-08T22:05:31.729Z,98517.22
2023-03-08T22:07:58.660Z,98508.75
2023-03-08T22:10:25.313Z,98502.81
2023-03-08T22:12:52.043Z,98498.13
2023-03-08T22:15:19.069Z,98498.19
2023-03-08T22:17:45.934Z,98499.38
2023-03-08T22:20:12.880Z,98493.75
2023-03-08T22:22:40.278Z,98508.25
2023-03-08T22:25:08.563Z,98496.19
2023-03-08T22:27:35.406Z,98490.81
2023-03-08T22:30:03.029Z,98494.09
2023-03-08T22:32:29.715Z,98507.41
2023-03-08T22:34:56.769Z,98508.78
2023-03-08T22:37:23.468Z,98503.09
2023-03-08T22:39:50.209Z,98510.97
2023-03-08T22:42:16.965Z,98506.88
2023-03-08T22:44:43.804Z,98510.09
2023-03-08T22:47:10.484Z,98508.75
2023-03-08T22:49:37.197Z,98514.09
2023-03-08T22:52:03.982Z,98510.13
2023-03-08T22:54:30.935Z,98513.31
2023-03-08T22:56:57.578Z,98515.50
2023-03-08T22:59:24.339Z,98519.88
2023-03-08T23:01:51.431Z,98519.63
2023-03-08T23:04:18.201Z,98515.72
2023-03-08T23:06:44.826Z,98522.19
2023-03-08T23:09:11.614Z,98520.84
2023-03-08T23:11:39.556Z,98520.97
2023-03-08T23:14:07.134Z,98510.00
2023-03-08T23:16:35.068Z,98506.88
2023-03-08T23:19:02.247Z,98501.34
2023-03-08T23:21:30.432Z,98509.25
2023-03-08T23:23:57.846Z,98509.41
2023-03-08T23:26:25.765Z,98503.25
2023-03-08T23:28:55.825Z,98503.41
2023-03-08T23:31:25.112Z,98496.03
2023-03-08T23:33:52.524Z,98495.59
2023-03-08T23:36:22.168Z,98495.78
2023-03-08T23:38:49.565Z,98492.03
2023-03-08T23:41:17.712Z,98488.78
2023-03-08T23:43:44.762Z,98492.78
2023-03-08T23:46:19.318Z,98493.88
2023-03-08T23:48:47.312Z,98491.25
2023-03-08T23:51:16.813Z,98496.75
2023-03-08T23:53:44.107Z,98483.75
2023-03-08T23:56:28.688Z,98479.69
2023-03-08T23:59:00.889Z,98473.13
